sensor_id;sensor_type;location;lat;lon;timestamp;temperature;humidity
21259;DHT22;10787;53.364;-1.480;2022-07-29T00:00:47;17.30;99.90
21259;DHT22;10787;53.364;-1.480;2022-07-29T00:03:13;17.30;99.90
21259;DHT22;10787;53.364;-1.480;2022-07-29T00:05:40;17.30;99.90
21259;DHT22;10787;53.364;-1.480;2022-07-29T00:08:07;17.30;99.90
21259;DHT22;10787;53.364;-1.480;2022-07-29T00:10:33;17.30;99.90
21259;DHT22;10787;53.364;-1.480;2022-07-29T00:12:59;17.30;99.90
21259;DHT22;10787;53.364;-1.480;2022-07-29T00:15:25;17.30;99.90
21259;DHT22;10787;53.364;-1.480;2022-07-29T00:17:51;17.20;99.90
21259;DHT22;10787;53.364;-1.480;2022-07-29T00:20:16;17.20;99.90
21259;DHT22;10787;53.364;-1.480;2022-07-29T00:22:43;17.20;99.90
21259;DHT22;10787;53.364;-1.480;2022-07-29T00:25:09;17.20;99.90
21259;DHT22;10787;53.364;-1.480;2022-07-29T00:27:36;17.20;99.90
21259;DHT22;10787;53.364;-1.480;2022-07-29T00:30:03;17.10;99.90
21259;DHT22;10787;53.364;-1.480;2022-07-29T00:32:29;17.20;99.90
21259;DHT22;10787;53.364;-1.480;2022-07-29T00:34:55;17.10;99.90
21259;DHT22;10787;53.364;-1.480;2022-07-29T00:37:39;17.10;99.90
21259;DHT22;10787;53.364;-1.480;2022-07-29T00:40:05;17.10;99.90
21259;DHT22;10787;53.364;-1.480;2022-07-29T00:42:40;17.00;99.90
21259;DHT22;10787;53.364;-1.480;2022-07-29T00:45:06;17.00;99.90
21259;DHT22;10787;53.364;-1.480;2022-07-29T00:47:32;17.00;99.90
21259;DHT22;10787;53.364;-1.480;2022-07-29T00:49:58;17.00;99.90
21259;DHT22;10787;53.364;-1.480;2022-07-29T00:52:23;17.00;99.90
21259;DHT22;10787;53.364;-1.480;2022-07-29T00:54:50;17.00;99.90
21259;DHT22;10787;53.364;-1.480;2022-07-29T00:57:16;17.00;99.90
21259;DHT22;10787;53.364;-1.480;2022-07-29T00:59:42;17.00;99.90
21259;DHT22;10787;53.364;-1.480;2022-07-29T01:02:07;17.00;99.90
21259;DHT22;10787;53.364;-1.480;2022-07-29T01:04:33;17.00;99.90
21259;DHT22;10787;53.364;-1.480;2022-07-29T01:07:03;16.90;99.90
21259;DHT22;10787;53.364;-1.480;2022-07-29T01:09:31;17.00;99.90
21259;DHT22;10787;53.364;-1.480;2022-07-29T01:11:57;17.00;99.90
21259;DHT22;10787;53.364;-1.480;2022-07-29T01:14:25;17.00;99.90
21259;DHT22;10787;53.364;-1.480;2022-07-29T01:16:57;17.00;99.90
21259;DHT22;10787;53.364;-1.480;2022-07-29T01:28:39;16.90;99.90
21259;DHT22;10787;53.364;-1.480;2022-07-29T01:31:08;16.80;99.90
21259;DHT22;10787;53.364;-1.480;2022-07-29T01:33:41;16.80;99.90
21259;DHT22;10787;53.364;-1.480;2022-07-29T01:36:23;16.70;99.90
21259;DHT22;10787;53.364;-1.480;2022-07-29T01:39:00;16.70;99.90
21259;DHT22;10787;53.364;-1.480;2022-07-29T01:41:31;16.70;99.90
21259;DHT22;10787;53.364;-1.480;2022-07-29T01:44:10;16.70;99.90
21259;DHT22;10787;53.364;-1.480;2022-07-29T01:46:41;16.70;99.90
21259;DHT22;10787;53.364;-1.480;2022-07-29T01:49:14;16.60;99.90
21259;DHT22;10787;53.364;-1.480;2022-07-29T01:51:58;16.60;99.90
21259;DHT22;10787;53.364;-1.480;2022-07-29T01:54:47;16.60;99.90
21259;DHT22;10787;53.364;-1.480;2022-07-29T01:57:15;16.50;99.90
21259;DHT22;10787;53.364;-1.480;2022-07-29T01:59:47;16.50;99.90
21259;DHT22;10787;53.364;-1.480;2022-07-29T02:02:15;16.50;99.90
21259;DHT22;10787;53.364;-1.480;2022-07-29T02:04:43;16.50;99.90
21259;DHT22;10787;53.364;-1.480;2022-07-29T02:07:13;16.40;99.90
21259;DHT22;10787;53.364;-1.480;2022-07-29T02:09:41;16.40;99.90
21259;DHT22;10787;53.364;-1.480;2022-07-29T02:12:09;16.40;99.90
21259;DHT22;10787;53.364;-1.480;2022-07-29T02:14:42;16.50;99.90
21259;DHT22;10787;53.364;-1.480;2022-07-29T02:17:10;16.50;99.90
21259;DHT22;10787;53.364;-1.480;2022-07-29T02:19:38;16.40;99.90
21259;DHT22;10787;53.364;-1.480;2022-07-29T02:22:05;16.40;99.90
21259;DHT22;10787;53.364;-1.480;2022-07-29T02:24:32;16.40;99.90
21259;DHT22;10787;53.364;-1.480;2022-07-29T02:27:00;16.40;99.90
21259;DHT22;10787;53.364;-1.480;2022-07-29T02:29:27;16.40;99.90
21259;DHT22;10787;53.364;-1.480;2022-07-29T02:31:55;16.40;99.90
21259;DHT22;10787;53.364;-1.480;2022-07-29T02:34:23;16.40;99.90
21259;DHT22;10787;53.364;-1.480;2022-07-29T02:36:51;16.50;99.90
21259;DHT22;10787;53.364;-1.480;2022-07-29T02:39:18;16.50;99.90
21259;DHT22;10787;53.364;-1.480;2022-07-29T02:41:48;16.40;99.90
21259;DHT22;10787;53.364;-1.480;2022-07-29T02:44:18;16.50;99.90
21259;DHT22;10787;53.364;-1.480;2022-07-29T02:47:02;16.50;99.90
21259;DHT22;10787;53.364;-1.480;2022-07-29T02:49:38;16.50;99.90
21259;DHT22;10787;53.364;-1.480;2022-07-29T02:52:16;16.40;99.90
21259;DHT22;10787;53.364;-1.480;2022-07-29T02:57:44;16.40;99.90
21259;DHT22;10787;53.364;-1.480;2022-07-29T03:00:10;16.40;99.90
21259;DHT22;10787;53.364;-1.480;2022-07-29T03:02:39;16.40;99.90
21259;DHT22;10787;53.364;-1.480;2022-07-29T03:05:09;16.40;99.90
21259;DHT22;10787;53.364;-1.480;2022-07-29T03:07:37;16.40;99.90
21259;DHT22;10787;53.364;-1.480;2022-07-29T03:10:05;16.40;99.90
21259;DHT22;10787;53.364;-1.480;2022-07-29T03:12:32;16.40;99.90
21259;DHT22;10787;53.364;-1.480;2022-07-29T03:14:59;16.30;99.90
21259;DHT22;10787;53.364;-1.480;2022-07-29T03:17:26;16.30;99.90
21259;DHT22;10787;53.364;-1.480;2022-07-29T03:19:52;16.20;99.90
21259;DHT22;10787;53.364;-1.480;2022-07-29T03:22:19;16.20;99.90
21259;DHT22;10787;53.364;-1.480;2022-07-29T03:24:45;16.10;99.90
21259;DHT22;10787;53.364;-1.480;2022-07-29T03:27:11;16.10;99.90
21259;DHT22;10787;53.364;-1.480;2022-07-29T03:29:37;16.10;99.90
21259;DHT22;10787;53.364;-1.480;2022-07-29T03:32:04;16.10;99.90
21259;DHT22;10787;53.364;-1.480;2022-07-29T03:34:30;16.00;99.90
21259;DHT22;10787;53.364;-1.480;2022-07-29T03:36:56;16.00;99.90
21259;DHT22;10787;53.364;-1.480;2022-07-29T03:39:25;16.10;99.90
21259;DHT22;10787;53.364;-1.480;2022-07-29T03:41:55;16.10;99.90
21259;DHT22;10787;53.364;-1.480;2022-07-29T03:44:23;16.10;99.90
21259;DHT22;10787;53.364;-1.480;2022-07-29T03:46:52;16.20;99.90
21259;DHT22;10787;53.364;-1.480;2022-07-29T03:49:20;16.10;99.90
21259;DHT22;10787;53.364;-1.480;2022-07-29T03:51:47;16.20;99.90
21259;DHT22;10787;53.364;-1.480;2022-07-29T03:54:13;16.20;99.90
21259;DHT22;10787;53.364;-1.480;2022-07-29T03:56:42;16.20;99.90
21259;DHT22;10787;53.364;-1.480;2022-07-29T03:59:13;16.20;99.90
21259;DHT22;10787;53.364;-1.480;2022-07-29T04:01:40;16.20;99.90
21259;DHT22;10787;53.364;-1.480;2022-07-29T04:04:07;16.20;99.90
21259;DHT22;10787;53.364;-1.480;2022-07-29T04:06:43;16.20;99.90
21259;DHT22;10787;53.364;-1.480;2022-07-29T04:09:11;16.20;99.90
21259;DHT22;10787;53.364;-1.480;2022-07-29T04:11:39;16.10;99.90
21259;DHT22;10787;53.364;-1.480;2022-07-29T04:14:05;16.20;99.90
21259;DHT22;10787;53.364;-1.480;2022-07-29T04:16:32;16.20;99.90
21259;DHT22;10787;53.364;-1.480;2022-07-29T04:18:58;16.10;99.90
21259;DHT22;10787;53.364;-1.480;2022-07-29T04:21:24;16.10;99.90
21259;DHT22;10787;53.364;-1.480;2022-07-29T04:23:50;16.10;99.90
21259;DHT22;10787;53.364;-1.480;2022-07-29T04:26:17;16.00;99.90
21259;DHT22;10787;53.364;-1.480;2022-07-29T04:28:43;16.00;99.90
21259;DHT22;10787;53.364;-1.480;2022-07-29T04:31:10;15.90;99.90
21259;DHT22;10787;53.364;-1.480;2022-07-29T04:33:36;16.00;99.90
21259;DHT22;10787;53.364;-1.480;2022-07-29T04:36:02;16.00;99.90
21259;DHT22;10787;53.364;-1.480;2022-07-29T04:38:28;16.00;99.90
21259;DHT22;10787;53.364;-1.480;2022-07-29T04:40:54;16.00;99.90
21259;DHT22;10787;53.364;-1.480;2022-07-29T04:43:20;16.00;99.90
21259;DHT22;10787;53.364;-1.480;2022-07-29T04:45:45;15.90;99.90
21259;DHT22;10787;53.364;-1.480;2022-07-29T04:48:11;15.90;99.90
21259;DHT22;10787;53.364;-1.480;2022-07-29T04:50:39;15.90;99.90
21259;DHT22;10787;53.364;-1.480;2022-07-29T04:53:05;15.90;99.90
21259;DHT22;10787;53.364;-1.480;2022-07-29T04:55:33;15.90;99.90
21259;DHT22;10787;53.364;-1.480;2022-07-29T04:57:59;15.90;99.90
21259;DHT22;10787;53.364;-1.480;2022-07-29T05:00:25;16.00;99.90
21259;DHT22;10787;53.364;-1.480;2022-07-29T05:02:51;16.00;99.90
21259;DHT22;10787;53.364;-1.480;2022-07-29T05:05:17;16.00;99.90
21259;DHT22;10787;53.364;-1.480;2022-07-29T05:07:43;16.00;99.90
21259;DHT22;10787;53.364;-1.480;2022-07-29T05:10:09;15.90;99.90
21259;DHT22;10787;53.364;-1.480;2022-07-29T05:12:37;15.90;99.90
21259;DHT22;10787;53.364;-1.480;2022-07-29T05:15:03;15.90;99.90
21259;DHT22;10787;53.364;-1.480;2022-07-29T05:17:29;15.80;99.90
21259;DHT22;10787;53.364;-1.480;2022-07-29T05:19:54;15.90;99.90
21259;DHT22;10787;53.364;-1.480;2022-07-29T05:22:21;15.90;99.90
21259;DHT22;10787;53.364;-1.480;2022-07-29T05:24:47;15.90;99.90
21259;DHT22;10787;53.364;-1.480;2022-07-29T05:27:13;16.00;99.90
21259;DHT22;10787;53.364;-1.480;2022-07-29T05:29:39;16.00;99.90
21259;DHT22;10787;53.364;-1.480;2022-07-29T05:32:05;16.00;99.90
21259;DHT22;10787;53.364;-1.480;2022-07-29T05:34:31;16.00;99.90
21259;DHT22;10787;53.364;-1.480;2022-07-29T05:36:57;16.00;99.90
21259;DHT22;10787;53.364;-1.480;2022-07-29T05:39:23;16.00;99.90
21259;DHT22;10787;53.364;-1.480;2022-07-29T05:41:50;16.00;99.90
21259;DHT22;10787;53.364;-1.480;2022-07-29T05:44:16;16.00;99.90
21259;DHT22;10787;53.364;-1.480;2022-07-29T05:46:41;16.00;99.90
21259;DHT22;10787;53.364;-1.480;2022-07-29T05:49:07;16.00;99.90
21259;DHT22;10787;53.364;-1.480;2022-07-29T05:51:33;16.00;99.90
21259;DHT22;10787;53.364;-1.480;2022-07-29T05:53:59;16.00;99.90
21259;DHT22;10787;53.364;-1.480;2022-07-29T05:56:25;16.00;99.90
21259;DHT22;10787;53.364;-1.480;2022-07-29T05:58:51;16.10;99.90
21259;DHT22;10787;53.364;-1.480;2022-07-29T06:01:17;16.10;99.90
21259;DHT22;10787;53.364;-1.480;2022-07-29T06:03:59;16.10;99.90
21259;DHT22;10787;53.364;-1.480;2022-07-29T06:06:25;16.00;99.90
21259;DHT22;10787;53.364;-1.480;2022-07-29T06:08:50;16.10;99.90
21259;DHT22;10787;53.364;-1.480;2022-07-29T06:11:16;16.10;99.90
21259;DHT22;10787;53.364;-1.480;2022-07-29T06:13:42;16.10;99.90
21259;DHT22;10787;53.364;-1.480;2022-07-29T06:16:08;16.10;99.90
21259;DHT22;10787;53.364;-1.480;2022-07-29T06:18:33;16.10;99.90
21259;DHT22;10787;53.364;-1.480;2022-07-29T06:20:59;16.10;99.90
21259;DHT22;10787;53.364;-1.480;2022-07-29T06:23:25;16.10;99.90
21259;DHT22;10787;53.364;-1.480;2022-07-29T06:25:51;16.10;99.90
21259;DHT22;10787;53.364;-1.480;2022-07-29T06:28:17;16.20;99.90
21259;DHT22;10787;53.364;-1.480;2022-07-29T06:30:43;16.20;99.90
21259;DHT22;10787;53.364;-1.480;2022-07-29T06:33:09;16.20;99.90
21259;DHT22;10787;53.364;-1.480;2022-07-29T06:35:35;16.30;99.90
21259;DHT22;10787;53.364;-1.480;2022-07-29T06:38:02;16.40;99.90
21259;DHT22;10787;53.364;-1.480;2022-07-29T06:40:29;16.40;99.90
21259;DHT22;10787;53.364;-1.480;2022-07-29T06:43:13;16.40;99.90
21259;DHT22;10787;53.364;-1.480;2022-07-29T06:45:40;16.50;99.90
21259;DHT22;10787;53.364;-1.480;2022-07-29T06:48:09;16.50;99.90
21259;DHT22;10787;53.364;-1.480;2022-07-29T06:50:34;16.50;99.90
21259;DHT22;10787;53.364;-1.480;2022-07-29T06:53:02;16.50;99.90
21259;DHT22;10787;53.364;-1.480;2022-07-29T06:55:28;16.60;99.90
21259;DHT22;10787;53.364;-1.480;2022-07-29T06:57:54;16.60;99.90
21259;DHT22;10787;53.364;-1.480;2022-07-29T07:00:19;16.60;99.90
21259;DHT22;10787;53.364;-1.480;2022-07-29T07:02:45;16.60;99.90
21259;DHT22;10787;53.364;-1.480;2022-07-29T07:05:11;16.60;99.90
21259;DHT22;10787;53.364;-1.480;2022-07-29T07:07:37;16.70;99.90
21259;DHT22;10787;53.364;-1.480;2022-07-29T07:10:03;16.70;99.90
21259;DHT22;10787;53.364;-1.480;2022-07-29T07:12:29;16.80;99.90
21259;DHT22;10787;53.364;-1.480;2022-07-29T07:14:55;16.80;99.90
21259;DHT22;10787;53.364;-1.480;2022-07-29T07:17:21;16.70;99.90
21259;DHT22;10787;53.364;-1.480;2022-07-29T07:19:46;16.60;99.90
21259;DHT22;10787;53.364;-1.480;2022-07-29T07:22:12;16.60;99.90
21259;DHT22;10787;53.364;-1.480;2022-07-29T07:24:38;16.60;99.90
21259;DHT22;10787;53.364;-1.480;2022-07-29T07:27:04;16.50;99.90
21259;DHT22;10787;53.364;-1.480;2022-07-29T07:29:30;16.50;99.90
21259;DHT22;10787;53.364;-1.480;2022-07-29T07:31:57;16.50;99.90
21259;DHT22;10787;53.364;-1.480;2022-07-29T07:34:23;16.50;99.90
21259;DHT22;10787;53.364;-1.480;2022-07-29T07:36:49;16.50;99.90
21259;DHT22;10787;53.364;-1.480;2022-07-29T07:39:15;16.50;99.90
21259;DHT22;10787;53.364;-1.480;2022-07-29T07:41:41;16.50;99.90
21259;DHT22;10787;53.364;-1.480;2022-07-29T07:44:07;16.50;99.90
21259;DHT22;10787;53.364;-1.480;2022-07-29T07:46:33;16.60;99.90
21259;DHT22;10787;53.364;-1.480;2022-07-29T07:48:58;16.60;99.90
21259;DHT22;10787;53.364;-1.480;2022-07-29T07:51:24;16.60;99.90
21259;DHT22;10787;53.364;-1.480;2022-07-29T07:53:50;16.70;99.90
21259;DHT22;10787;53.364;-1.480;2022-07-29T07:56:16;16.80;99.90
21259;DHT22;10787;53.364;-1.480;2022-07-29T07:58:42;16.90;99.90
21259;DHT22;10787;53.364;-1.480;2022-07-29T08:01:09;16.90;99.90
21259;DHT22;10787;53.364;-1.480;2022-07-29T08:03:35;17.00;99.90
21259;DHT22;10787;53.364;-1.480;2022-07-29T08:06:02;17.00;99.90
21259;DHT22;10787;53.364;-1.480;2022-07-29T08:08:28;17.10;99.90
21259;DHT22;10787;53.364;-1.480;2022-07-29T08:11:14;17.30;99.90
21259;DHT22;10787;53.364;-1.480;2022-07-29T08:13:40;17.40;99.90
21259;DHT22;10787;53.364;-1.480;2022-07-29T08:16:07;17.60;99.90
21259;DHT22;10787;53.364;-1.480;2022-07-29T08:18:41;17.70;99.90
21259;DHT22;10787;53.364;-1.480;2022-07-29T08:21:08;17.90;99.90
21259;DHT22;10787;53.364;-1.480;2022-07-29T08:23:34;18.00;99.90
21259;DHT22;10787;53.364;-1.480;2022-07-29T08:26:12;18.10;99.90
21259;DHT22;10787;53.364;-1.480;2022-07-29T08:28:40;18.20;99.90
21259;DHT22;10787;53.364;-1.480;2022-07-29T08:31:07;18.20;99.90
21259;DHT22;10787;53.364;-1.480;2022-07-29T08:33:33;18.10;99.90
21259;DHT22;10787;53.364;-1.480;2022-07-29T08:35:59;18.20;99.90
21259;DHT22;10787;53.364;-1.480;2022-07-29T08:38:25;18.10;99.90
21259;DHT22;10787;53.364;-1.480;2022-07-29T08:40:54;18.10;99.90
21259;DHT22;10787;53.364;-1.480;2022-07-29T08:43:20;18.00;99.90
21259;DHT22;10787;53.364;-1.480;2022-07-29T08:45:49;18.10;99.90
21259;DHT22;10787;53.364;-1.480;2022-07-29T08:48:18;18.10;99.90
21259;DHT22;10787;53.364;-1.480;2022-07-29T08:50:45;18.10;99.90
21259;DHT22;10787;53.364;-1.480;2022-07-29T08:53:15;18.20;99.90
21259;DHT22;10787;53.364;-1.480;2022-07-29T08:55:43;18.20;99.90
21259;DHT22;10787;53.364;-1.480;2022-07-29T08:58:13;18.20;99.90
21259;DHT22;10787;53.364;-1.480;2022-07-29T09:00:49;18.20;99.90
21259;DHT22;10787;53.364;-1.480;2022-07-29T09:03:18;18.30;99.90
21259;DHT22;10787;53.364;-1.480;2022-07-29T09:05:46;18.30;99.90
21259;DHT22;10787;53.364;-1.480;2022-07-29T09:08:13;18.40;99.90
21259;DHT22;10787;53.364;-1.480;2022-07-29T09:10:40;18.50;99.90
21259;DHT22;10787;53.364;-1.480;2022-07-29T09:13:06;18.70;99.90
21259;DHT22;10787;53.364;-1.480;2022-07-29T09:15:32;18.80;99.90
21259;DHT22;10787;53.364;-1.480;2022-07-29T09:17:58;19.00;99.90
21259;DHT22;10787;53.364;-1.480;2022-07-29T09:20:26;19.20;99.90
21259;DHT22;10787;53.364;-1.480;2022-07-29T09:23:13;19.30;99.90
21259;DHT22;10787;53.364;-1.480;2022-07-29T09:25:40;19.40;99.90
21259;DHT22;10787;53.364;-1.480;2022-07-29T09:30:39;19.60;99.90
21259;DHT22;10787;53.364;-1.480;2022-07-29T09:33:15;19.70;99.90
21259;DHT22;10787;53.364;-1.480;2022-07-29T09:35:41;19.80;99.90
21259;DHT22;10787;53.364;-1.480;2022-07-29T09:38:11;19.90;99.90
21259;DHT22;10787;53.364;-1.480;2022-07-29T09:40:38;20.00;99.90
21259;DHT22;10787;53.364;-1.480;2022-07-29T09:43:13;20.20;99.90
21259;DHT22;10787;53.364;-1.480;2022-07-29T09:45:39;20.30;99.90
21259;DHT22;10787;53.364;-1.480;2022-07-29T09:48:16;20.40;99.90
21259;DHT22;10787;53.364;-1.480;2022-07-29T09:50:43;20.50;99.90
21259;DHT22;10787;53.364;-1.480;2022-07-29T09:53:10;20.70;99.90
21259;DHT22;10787;53.364;-1.480;2022-07-29T09:55:50;21.00;99.90
21259;DHT22;10787;53.364;-1.480;2022-07-29T09:58:18;21.40;99.90
21259;DHT22;10787;53.364;-1.480;2022-07-29T10:00:45;21.80;99.90
21259;DHT22;10787;53.364;-1.480;2022-07-29T10:03:12;22.00;99.90
21259;DHT22;10787;53.364;-1.480;2022-07-29T10:05:38;22.30;99.90
21259;DHT22;10787;53.364;-1.480;2022-07-29T10:08:05;22.30;99.90
21259;DHT22;10787;53.364;-1.480;2022-07-29T10:10:39;22.20;99.90
21259;DHT22;10787;53.364;-1.480;2022-07-29T10:13:12;22.30;99.90
21259;DHT22;10787;53.364;-1.480;2022-07-29T10:15:41;22.10;99.90
21259;DHT22;10787;53.364;-1.480;2022-07-29T10:18:10;22.30;99.90
21259;DHT22;10787;53.364;-1.480;2022-07-29T10:20:37;22.20;99.90
21259;DHT22;10787;53.364;-1.480;2022-07-29T10:23:03;22.40;99.90
21259;DHT22;10787;53.364;-1.480;2022-07-29T10:25:30;22.50;99.90
21259;DHT22;10787;53.364;-1.480;2022-07-29T10:27:56;22.70;99.90
21259;DHT22;10787;53.364;-1.480;2022-07-29T10:30:24;22.90;99.90
21259;DHT22;10787;53.364;-1.480;2022-07-29T10:41:29;23.10;99.90
21259;DHT22;10787;53.364;-1.480;2022-07-29T10:44:02;23.20;99.90
21259;DHT22;10787;53.364;-1.480;2022-07-29T10:46:35;23.30;99.90
21259;DHT22;10787;53.364;-1.480;2022-07-29T10:52:07;23.40;99.90
21259;DHT22;10787;53.364;-1.480;2022-07-29T10:59:43;23.30;99.90
21259;DHT22;10787;53.364;-1.480;2022-07-29T11:07:24;23.40;99.90
21259;DHT22;10787;53.364;-1.480;2022-07-29T11:15:12;23.40;99.90
21259;DHT22;10787;53.364;-1.480;2022-07-29T11:23:29;22.80;99.90
21259;DHT22;10787;53.364;-1.480;2022-07-29T11:31:38;22.20;99.90
21259;DHT22;10787;53.364;-1.480;2022-07-29T11:34:26;22.10;99.90
21259;DHT22;10787;53.364;-1.480;2022-07-29T11:45:02;21.50;99.90
21259;DHT22;10787;53.364;-1.480;2022-07-29T11:47:33;21.40;99.90
21259;DHT22;10787;53.364;-1.480;2022-07-29T11:50:02;21.40;99.90
21259;DHT22;10787;53.364;-1.480;2022-07-29T11:52:41;21.50;99.90
21259;DHT22;10787;53.364;-1.480;2022-07-29T11:55:20;21.70;99.90
21259;DHT22;10787;53.364;-1.480;2022-07-29T11:57:56;22.10;99.90
21259;DHT22;10787;53.364;-1.480;2022-07-29T12:00:36;22.30;99.90
21259;DHT22;10787;53.364;-1.480;2022-07-29T12:03:07;22.70;99.90
21259;DHT22;10787;53.364;-1.480;2022-07-29T12:05:43;22.90;99.90
21259;DHT22;10787;53.364;-1.480;2022-07-29T12:08:15;23.30;99.90
21259;DHT22;10787;53.364;-1.480;2022-07-29T12:10:42;23.60;99.90
21259;DHT22;10787;53.364;-1.480;2022-07-29T12:13:09;23.90;99.90
21259;DHT22;10787;53.364;-1.480;2022-07-29T12:15:35;24.40;99.90
21259;DHT22;10787;53.364;-1.480;2022-07-29T12:18:18;24.90;99.90
21259;DHT22;10787;53.364;-1.480;2022-07-29T12:20:47;25.00;99.90
21259;DHT22;10787;53.364;-1.480;2022-07-29T12:23:13;25.20;99.90
21259;DHT22;10787;53.364;-1.480;2022-07-29T12:25:41;25.30;99.90
21259;DHT22;10787;53.364;-1.480;2022-07-29T12:28:10;25.30;99.90
21259;DHT22;10787;53.364;-1.480;2022-07-29T12:30:56;25.50;99.90
21259;DHT22;10787;53.364;-1.480;2022-07-29T12:33:26;25.80;99.90
21259;DHT22;10787;53.364;-1.480;2022-07-29T12:36:00;26.10;99.90
21259;DHT22;10787;53.364;-1.480;2022-07-29T12:38:27;26.30;99.90
21259;DHT22;10787;53.364;-1.480;2022-07-29T12:40:54;26.40;99.90
21259;DHT22;10787;53.364;-1.480;2022-07-29T12:43:22;26.60;99.90
21259;DHT22;10787;53.364;-1.480;2022-07-29T12:45:56;26.60;99.90
21259;DHT22;10787;53.364;-1.480;2022-07-29T12:48:39;26.40;99.90
21259;DHT22;10787;53.364;-1.480;2022-07-29T12:51:07;25.90;99.90
21259;DHT22;10787;53.364;-1.480;2022-07-29T12:53:35;25.50;99.90
21259;DHT22;10787;53.364;-1.480;2022-07-29T12:56:02;25.20;99.90
21259;DHT22;10787;53.364;-1.480;2022-07-29T12:58:39;25.10;99.90
21259;DHT22;10787;53.364;-1.480;2022-07-29T13:01:19;25.00;99.90
21259;DHT22;10787;53.364;-1.480;2022-07-29T13:06:44;24.50;99.90
21259;DHT22;10787;53.364;-1.480;2022-07-29T13:11:50;23.80;99.90
21259;DHT22;10787;53.364;-1.480;2022-07-29T13:14:43;23.60;99.90
21259;DHT22;10787;53.364;-1.480;2022-07-29T13:17:21;23.50;99.90
21259;DHT22;10787;53.364;-1.480;2022-07-29T13:20:06;23.50;99.90
21259;DHT22;10787;53.364;-1.480;2022-07-29T13:22:35;23.70;99.90
21259;DHT22;10787;53.364;-1.480;2022-07-29T13:25:01;23.70;99.90
21259;DHT22;10787;53.364;-1.480;2022-07-29T13:27:29;23.50;99.90
21259;DHT22;10787;53.364;-1.480;2022-07-29T13:29:57;23.50;99.90
21259;DHT22;10787;53.364;-1.480;2022-07-29T13:32:24;23.50;99.90
21259;DHT22;10787;53.364;-1.480;2022-07-29T13:34:51;23.40;99.90
21259;DHT22;10787;53.364;-1.480;2022-07-29T13:37:17;23.30;99.90
21259;DHT22;10787;53.364;-1.480;2022-07-29T13:39:43;23.20;99.90
21259;DHT22;10787;53.364;-1.480;2022-07-29T13:42:09;23.10;99.90
21259;DHT22;10787;53.364;-1.480;2022-07-29T13:44:35;22.80;99.90
21259;DHT22;10787;53.364;-1.480;2022-07-29T13:47:01;22.80;99.90
21259;DHT22;10787;53.364;-1.480;2022-07-29T13:49:29;22.70;99.90
21259;DHT22;10787;53.364;-1.480;2022-07-29T13:51:54;22.70;99.90
21259;DHT22;10787;53.364;-1.480;2022-07-29T13:54:20;22.70;99.90
21259;DHT22;10787;53.364;-1.480;2022-07-29T13:56:46;22.80;99.90
21259;DHT22;10787;53.364;-1.480;2022-07-29T13:59:12;22.80;99.90
21259;DHT22;10787;53.364;-1.480;2022-07-29T14:01:38;22.90;99.90
21259;DHT22;10787;53.364;-1.480;2022-07-29T14:04:07;22.90;99.90
21259;DHT22;10787;53.364;-1.480;2022-07-29T14:06:33;23.00;99.90
21259;DHT22;10787;53.364;-1.480;2022-07-29T14:08:59;23.10;99.90
21259;DHT22;10787;53.364;-1.480;2022-07-29T14:11:25;23.30;99.90
21259;DHT22;10787;53.364;-1.480;2022-07-29T14:13:51;23.40;99.90
21259;DHT22;10787;53.364;-1.480;2022-07-29T14:16:17;23.60;99.90
21259;DHT22;10787;53.364;-1.480;2022-07-29T14:18:43;23.60;99.90
21259;DHT22;10787;53.364;-1.480;2022-07-29T14:21:09;23.40;99.90
21259;DHT22;10787;53.364;-1.480;2022-07-29T14:23:35;23.20;99.90
21259;DHT22;10787;53.364;-1.480;2022-07-29T14:26:01;23.10;99.90
21259;DHT22;10787;53.364;-1.480;2022-07-29T14:28:27;22.90;99.90
21259;DHT22;10787;53.364;-1.480;2022-07-29T14:30:53;22.80;99.90
21259;DHT22;10787;53.364;-1.480;2022-07-29T14:33:19;22.70;99.90
21259;DHT22;10787;53.364;-1.480;2022-07-29T14:35:45;22.80;99.90
21259;DHT22;10787;53.364;-1.480;2022-07-29T14:38:11;22.80;99.90
21259;DHT22;10787;53.364;-1.480;2022-07-29T14:40:37;22.90;99.90
21259;DHT22;10787;53.364;-1.480;2022-07-29T14:43:03;22.90;99.90
21259;DHT22;10787;53.364;-1.480;2022-07-29T14:45:29;22.90;99.90
21259;DHT22;10787;53.364;-1.480;2022-07-29T14:47:55;22.90;99.90
21259;DHT22;10787;53.364;-1.480;2022-07-29T14:50:21;22.90;99.90
21259;DHT22;10787;53.364;-1.480;2022-07-29T14:52:46;22.80;99.90
21259;DHT22;10787;53.364;-1.480;2022-07-29T14:55:12;22.60;99.90
21259;DHT22;10787;53.364;-1.480;2022-07-29T14:57:38;22.50;99.90
21259;DHT22;10787;53.364;-1.480;2022-07-29T15:00:05;22.50;99.90
21259;DHT22;10787;53.364;-1.480;2022-07-29T15:02:35;22.60;99.90
21259;DHT22;10787;53.364;-1.480;2022-07-29T15:05:01;22.70;99.90
21259;DHT22;10787;53.364;-1.480;2022-07-29T15:07:27;22.70;99.90
21259;DHT22;10787;53.364;-1.480;2022-07-29T15:09:53;22.70;99.90
21259;DHT22;10787;53.364;-1.480;2022-07-29T15:12:19;22.60;99.90
21259;DHT22;10787;53.364;-1.480;2022-07-29T15:14:45;22.50;99.90
21259;DHT22;10787;53.364;-1.480;2022-07-29T15:17:11;22.40;99.90
21259;DHT22;10787;53.364;-1.480;2022-07-29T15:19:37;22.40;99.90
21259;DHT22;10787;53.364;-1.480;2022-07-29T15:22:03;22.40;99.90
21259;DHT22;10787;53.364;-1.480;2022-07-29T15:24:30;22.40;99.90
21259;DHT22;10787;53.364;-1.480;2022-07-29T15:26:56;22.40;99.90
21259;DHT22;10787;53.364;-1.480;2022-07-29T15:29:22;22.30;99.90
21259;DHT22;10787;53.364;-1.480;2022-07-29T15:31:48;22.30;99.90
21259;DHT22;10787;53.364;-1.480;2022-07-29T15:34:14;22.30;99.90
21259;DHT22;10787;53.364;-1.480;2022-07-29T15:36:40;22.30;99.90
21259;DHT22;10787;53.364;-1.480;2022-07-29T15:39:06;22.40;99.90
21259;DHT22;10787;53.364;-1.480;2022-07-29T15:41:33;22.50;99.90
21259;DHT22;10787;53.364;-1.480;2022-07-29T15:43:59;22.60;99.90
21259;DHT22;10787;53.364;-1.480;2022-07-29T15:46:25;22.70;99.90
21259;DHT22;10787;53.364;-1.480;2022-07-29T15:49:09;22.80;99.90
21259;DHT22;10787;53.364;-1.480;2022-07-29T15:51:35;22.80;99.90
21259;DHT22;10787;53.364;-1.480;2022-07-29T15:54:02;22.80;99.90
21259;DHT22;10787;53.364;-1.480;2022-07-29T15:56:29;22.90;99.90
21259;DHT22;10787;53.364;-1.480;2022-07-29T15:58:55;22.90;99.90
21259;DHT22;10787;53.364;-1.480;2022-07-29T16:01:22;22.90;99.90
21259;DHT22;10787;53.364;-1.480;2022-07-29T16:03:49;22.90;99.90
21259;DHT22;10787;53.364;-1.480;2022-07-29T16:06:15;22.80;99.90
21259;DHT22;10787;53.364;-1.480;2022-07-29T16:08:41;22.80;99.90
21259;DHT22;10787;53.364;-1.480;2022-07-29T16:11:07;22.70;99.90
21259;DHT22;10787;53.364;-1.480;2022-07-29T16:13:33;22.70;99.90
21259;DHT22;10787;53.364;-1.480;2022-07-29T16:15:58;22.80;99.90
21259;DHT22;10787;53.364;-1.480;2022-07-29T16:18:24;22.70;99.90
21259;DHT22;10787;53.364;-1.480;2022-07-29T16:20:50;22.80;99.90
21259;DHT22;10787;53.364;-1.480;2022-07-29T16:23:16;22.80;99.90
21259;DHT22;10787;53.364;-1.480;2022-07-29T16:25:42;22.70;99.90
21259;DHT22;10787;53.364;-1.480;2022-07-29T16:28:08;22.60;99.90